createdAt,value
2017-06-05T00:00:46.250Z,0
2017-06-05T00:01:56.527Z,0
2017-06-05T00:03:06.800Z,0
2017-06-05T00:04:17.067Z,0
2017-06-05T00:05:27.028Z,0
2017-06-05T00:06:36.982Z,0
2017-06-05T00:07:47.250Z,0
2017-06-05T00:08:56.901Z,0
2017-06-05T00:10:06.213Z,0
2017-06-05T00:11:16.166Z,0
2017-06-05T00:12:26.445Z,0
2017-06-05T00:13:36.716Z,0
2017-06-05T00:14:46.671Z,0
2017-06-05T00:15:56.654Z,0
2017-06-05T00:17:06.609Z,0
2017-06-05T00:18:16.869Z,0
2017-06-05T00:19:27.143Z,0
2017-06-05T00:20:37.405Z,0
2017-06-05T00:21:46.731Z,0
2017-06-05T00:22:57.004Z,0
2017-06-05T00:24:07.285Z,0
2017-06-05T00:25:17.241Z,0
2017-06-05T00:26:27.506Z,0
2017-06-05T00:27:37.784Z,0
2017-06-05T00:28:48.053Z,0
2017-06-05T00:29:58.320Z,0
2017-06-05T00:31:08.583Z,0
2017-06-05T00:32:18.537Z,0
2017-06-05T00:33:28.489Z,0
2017-06-05T00:34:38.784Z,0
2017-06-05T00:35:48.114Z,0
2017-06-05T00:36:58.067Z,0
2017-06-05T00:38:08.363Z,0
2017-06-05T00:39:18.001Z,0
2017-06-05T00:40:28.273Z,0
2017-06-05T00:41:38.229Z,0
2017-06-05T00:42:48.186Z,0
2017-06-05T00:43:57.524Z,0
2017-06-05T00:45:07.477Z,0
2017-06-05T00:46:17.433Z,0
2017-06-05T00:47:27.708Z,0
2017-06-05T00:48:37.659Z,0
2017-06-05T00:49:47.960Z,0
2017-06-05T00:50:57.914Z,0
2017-06-05T00:52:07.867Z,0
2017-06-05T00:53:17.828Z,0
2017-06-05T00:54:27.468Z,0
2017-06-05T00:55:37.732Z,0
2017-06-05T00:56:47.686Z,0
2017-06-05T00:57:57.659Z,0
2017-06-05T00:59:07.616Z,0
2017-06-05T01:00:17.882Z,0
2017-06-05T01:01:28.151Z,0
2017-06-05T01:02:38.420Z,0
2017-06-05T01:03:48.381Z,0
2017-06-05T01:04:58.648Z,0
2017-06-05T01:06:08.920Z,0
2017-06-05T01:07:19.191Z,0
2017-06-05T01:08:29.460Z,0
2017-06-05T01:09:39.727Z,0
2017-06-05T01:10:49.997Z,0
2017-06-05T01:11:59.632Z,0
2017-06-05T01:13:09.901Z,0
2017-06-05T01:14:19.542Z,0
2017-06-05T01:15:29.807Z,0
2017-06-05T01:16:39.769Z,0
2017-06-05T01:17:49.724Z,0
2017-06-05T01:18:59.994Z,0
2017-06-05T01:20:09.951Z,0
2017-06-05T01:21:19.590Z,0
2017-06-05T01:22:29.541Z,0
2017-06-05T01:23:39.810Z,0
2017-06-05T01:24:50.073Z,0
2017-06-05T01:26:00.341Z,0
2017-06-05T01:27:10.302Z,0
2017-06-05T01:28:20.569Z,0
2017-06-05T01:29:30.839Z,0
2017-06-05T01:30:40.786Z,0
2017-06-05T01:31:50.420Z,0
2017-06-05T01:33:00.688Z,0
2017-06-05T01:34:10.635Z,0
2017-06-05T01:35:20.274Z,0
2017-06-05T01:36:30.234Z,0
2017-06-05T01:37:39.874Z,0
2017-06-05T01:38:49.836Z,0
2017-06-05T01:39:59.793Z,0
2017-06-05T01:41:09.436Z,0
2017-06-05T01:42:19.706Z,0
2017-06-05T01:43:29.662Z,0
2017-06-05T01:44:39.663Z,0
2017-06-05T01:45:49.931Z,0
2017-06-05T01:47:00.201Z,0
2017-06-05T01:48:09.537Z,0
2017-06-05T01:49:19.544Z,0
2017-06-05T01:50:29.510Z,0
2017-06-05T01:51:39.474Z,0
2017-06-05T01:52:49.425Z,0
2017-06-05T01:53:59.710Z,0
2017-06-05T01:55:09.974Z,0
2017-06-05T01:56:20.241Z,0
2017-06-05T01:57:30.198Z,0
2017-06-05T01:58:40.196Z,0
2017-06-05T01:59:50.156Z,0
2017-06-05T02:01:00.115Z,0
2017-06-05T02:02:10.079Z,0
2017-06-05T02:03:20.348Z,0
2017-06-05T02:04:30.317Z,0
2017-06-05T02:05:40.273Z,0
2017-06-05T02:06:50.226Z,0
2017-06-05T02:08:00.188Z,0
2017-06-05T02:09:10.449Z,0
2017-06-05T02:10:20.717Z,0
2017-06-05T02:11:30.670Z,0
2017-06-05T02:12:40.936Z,0
2017-06-05T02:13:50.888Z,0
2017-06-05T02:15:01.165Z,0
2017-06-05T02:16:10.808Z,0
2017-06-05T02:17:21.118Z,0
2017-06-05T02:18:31.077Z,0
2017-06-05T02:19:41.038Z,0
2017-06-05T02:20:50.677Z,0
2017-06-05T02:22:00.952Z,0
2017-06-05T02:23:10.907Z,0
2017-06-05T02:24:21.190Z,0
2017-06-05T02:25:30.827Z,0
2017-06-05T02:26:41.105Z,0
2017-06-05T02:27:51.061Z,0
2017-06-05T02:29:01.021Z,0
2017-06-05T02:30:10.666Z,0
2017-06-05T02:31:20.618Z,0
2017-06-05T02:32:30.577Z,0
2017-06-05T02:33:40.529Z,0
2017-06-05T02:34:50.796Z,0
2017-06-05T02:36:00.745Z,0
2017-06-05T02:37:10.701Z,0
2017-06-05T02:38:20.342Z,0
2017-06-05T02:39:30.611Z,0
2017-06-05T02:40:40.881Z,0
2017-06-05T02:41:50.834Z,0
2017-06-05T02:43:01.107Z,0
2017-06-05T02:44:11.073Z,0
2017-06-05T02:45:21.039Z,0
2017-06-05T02:46:31.339Z,0
2017-06-05T02:47:41.618Z,0
2017-06-05T02:48:51.579Z,0
2017-06-05T02:50:01.227Z,0
2017-06-05T02:51:10.890Z,0
2017-06-05T02:52:20.845Z,0
2017-06-05T02:53:30.802Z,0
2017-06-05T02:54:40.756Z,0
2017-06-05T02:55:51.022Z,0
2017-06-05T02:57:00.976Z,0
2017-06-05T02:58:11.252Z,0
2017-06-05T02:59:21.534Z,0
2017-06-05T03:00:31.806Z,0
2017-06-05T03:01:42.071Z,0
2017-06-05T03:02:52.019Z,0
2017-06-05T03:04:02.289Z,0
2017-06-05T03:05:12.246Z,0
2017-06-05T03:06:21.892Z,0
2017-06-05T03:07:32.168Z,0
2017-06-05T03:08:42.449Z,0
2017-06-05T03:09:52.720Z,0
2017-06-05T03:11:02.997Z,0
2017-06-05T03:12:13.259Z,0
2017-06-05T03:13:23.250Z,0
2017-06-05T03:14:33.210Z,0
2017-06-05T03:15:43.470Z,0
2017-06-05T03:16:53.103Z,0
2017-06-05T03:18:03.061Z,0
2017-06-05T03:19:13.326Z,0
2017-06-05T03:20:22.961Z,0
2017-06-05T03:21:32.604Z,0
2017-06-05T03:22:42.561Z,0
2017-06-05T03:23:52.201Z,0
2017-06-05T03:25:02.473Z,0
2017-06-05T03:26:12.426Z,0
2017-06-05T03:27:22.694Z,0
2017-06-05T03:28:32.993Z,0
2017-06-05T03:29:42.630Z,0
2017-06-05T03:30:52.920Z,0
2017-06-05T03:32:02.869Z,0
2017-06-05T03:33:12.512Z,0
2017-06-05T03:34:22.819Z,0
2017-06-05T03:35:32.768Z,0
2017-06-05T03:36:43.037Z,0
2017-06-05T03:37:52.984Z,0
2017-06-05T03:39:02.960Z,0
2017-06-05T03:40:13.229Z,0
2017-06-05T03:41:23.498Z,0
2017-06-05T03:42:33.456Z,0
2017-06-05T03:43:43.090Z,0
2017-06-05T03:44:53.359Z,0
2017-06-05T03:46:03.313Z,0
2017-06-05T03:47:13.581Z,0
2017-06-05T03:48:23.225Z,4
2017-06-05T03:49:33.194Z,4
2017-06-05T03:50:43.458Z,0
2017-06-05T03:51:53.738Z,0
2017-06-05T03:53:03.697Z,0
2017-06-05T03:54:13.958Z,0
2017-06-05T03:55:23.910Z,0
2017-06-05T03:56:33.873Z,0
2017-06-05T03:57:43.827Z,0
2017-06-05T03:58:53.784Z,4
2017-06-05T04:00:04.058Z,0
2017-06-05T04:01:14.016Z,0
2017-06-05T04:02:24.286Z,0
2017-06-05T04:03:34.244Z,0
2017-06-05T04:04:43.887Z,0
2017-06-05T04:05:54.147Z,0
2017-06-05T04:07:04.409Z,0
2017-06-05T04:08:14.358Z,0
2017-06-05T04:09:24.638Z,0
2017-06-05T04:10:34.594Z,0
2017-06-05T04:11:44.862Z,0
2017-06-05T04:12:54.509Z,0
2017-06-05T04:14:04.782Z,4
2017-06-05T04:15:14.422Z,4
2017-06-05T04:16:24.377Z,0
2017-06-05T04:17:34.023Z,0
2017-06-05T04:18:43.998Z,0
2017-06-05T04:19:53.953Z,0
2017-06-05T04:21:03.917Z,0
2017-06-05T04:22:14.183Z,4
2017-06-05T04:23:24.457Z,4
2017-06-05T04:24:34.727Z,0
2017-06-05T04:25:44.685Z,0
2017-06-05T04:26:54.328Z,0
2017-06-05T04:28:04.292Z,0
2017-06-05T04:29:13.925Z,0
2017-06-05T04:30:23.559Z,4
2017-06-05T04:31:33.511Z,4
2017-06-05T04:32:43.777Z,0
2017-06-05T04:33:53.735Z,4
2017-06-05T04:35:03.684Z,4
2017-06-05T04:36:13.336Z,4
2017-06-05T04:37:23.290Z,4
2017-06-05T04:38:33.558Z,4
2017-06-05T04:39:43.826Z,4
2017-06-05T04:40:54.096Z,4
2017-06-05T04:42:03.412Z,4
2017-06-05T04:43:13.360Z,0
2017-06-05T04:44:22.995Z,0
2017-06-05T04:45:33.265Z,0
2017-06-05T04:46:43.213Z,4
2017-06-05T04:47:53.482Z,4
2017-06-05T04:49:03.434Z,0
2017-06-05T04:50:13.073Z,0
2017-06-05T04:51:23.022Z,4
2017-06-05T04:52:32.666Z,0
2017-06-05T04:53:42.304Z,4
2017-06-05T04:54:52.257Z,4
2017-06-05T04:56:02.523Z,4
2017-06-05T04:57:12.801Z,8
2017-06-05T04:58:23.065Z,8
2017-06-05T04:59:33.332Z,8
2017-06-05T05:00:43.285Z,12
2017-06-05T05:01:53.230Z,12
2017-06-05T05:03:02.864Z,8
2017-06-05T05:04:12.503Z,12
2017-06-05T05:05:22.772Z,8
2017-06-05T05:06:33.034Z,12
2017-06-05T05:07:42.666Z,12
2017-06-05T05:08:52.941Z,12
2017-06-05T05:10:02.892Z,12
2017-06-05T05:11:12.246Z,12
2017-06-05T05:12:22.192Z,12
2017-06-05T05:13:31.827Z,12
2017-06-05T05:14:42.102Z,12
2017-06-05T05:15:51.743Z,12
2017-06-05T05:17:01.696Z,16
2017-06-05T05:18:11.966Z,12
2017-06-05T05:19:21.928Z,16
2017-06-05T05:20:31.879Z,16
2017-06-05T05:21:41.839Z,16
2017-06-05T05:22:52.108Z,12
2017-06-05T05:24:01.752Z,12
2017-06-05T05:25:11.707Z,12
2017-06-05T05:26:21.967Z,16
2017-06-05T05:27:31.290Z,12
2017-06-05T05:28:41.596Z,16
2017-06-05T05:29:51.242Z,16
2017-06-05T05:31:01.198Z,16
2017-06-05T05:32:10.834Z,16
2017-06-05T05:33:20.787Z,12
2017-06-05T05:34:30.434Z,8
2017-06-05T05:35:40.709Z,12
2017-06-05T05:36:50.668Z,12
2017-06-05T05:38:00.940Z,12
2017-06-05T05:39:10.897Z,12
2017-06-05T05:40:20.546Z,8
2017-06-05T05:41:30.500Z,8
2017-06-05T05:42:40.764Z,12
2017-06-05T05:43:50.724Z,12
2017-06-05T05:45:00.674Z,12
2017-06-05T05:46:09.993Z,12
2017-06-05T05:47:20.264Z,8
2017-06-05T05:48:29.934Z,12
2017-06-05T05:49:39.571Z,12
2017-06-05T05:50:49.211Z,12
2017-06-05T05:51:59.163Z,12
2017-06-05T05:53:09.432Z,12
2017-06-05T05:54:19.695Z,12
2017-06-05T05:55:29.973Z,12
2017-06-05T05:56:39.926Z,12
2017-06-05T05:57:50.196Z,12
2017-06-05T05:59:00.154Z,12
2017-06-05T06:00:09.483Z,16
2017-06-05T06:01:19.754Z,16
2017-06-05T06:02:30.035Z,16
2017-06-05T06:03:39.670Z,20
2017-06-05T06:04:49.302Z,20
2017-06-05T06:05:59.577Z,16
2017-06-05T06:07:08.903Z,16
2017-06-05T06:08:18.856Z,16
2017-06-05T06:09:28.499Z,36
2017-06-05T06:10:38.775Z,48
2017-06-05T06:11:48.412Z,56
2017-06-05T06:12:58.366Z,64
2017-06-05T06:14:08.629Z,68
2017-06-05T06:15:17.954Z,72
2017-06-05T06:16:28.222Z,80
2017-06-05T06:17:38.175Z,84
2017-06-05T06:18:48.161Z,76
2017-06-05T06:19:57.806Z,80
2017-06-05T06:21:07.767Z,76
2017-06-05T06:22:17.408Z,72
2017-06-05T06:23:27.686Z,84
2017-06-05T06:24:37.645Z,80
2017-06-05T06:25:47.911Z,92
2017-06-05T06:26:58.200Z,96
2017-06-05T06:28:08.467Z,100
2017-06-05T06:29:18.103Z,96
2017-06-05T06:30:28.055Z,96
2017-06-05T06:31:38.334Z,80
2017-06-05T06:32:47.667Z,72
2017-06-05T06:33:57.020Z,36
2017-06-05T06:35:06.660Z,28
2017-06-05T06:36:16.606Z,84
2017-06-05T06:37:26.873Z,128
2017-06-05T06:38:36.825Z,120
2017-06-05T06:39:46.464Z,116
2017-06-05T06:40:56.428Z,136
2017-06-05T06:42:06.695Z,132
2017-06-05T06:43:16.650Z,68
2017-06-05T06:44:26.288Z,144
2017-06-05T06:45:36.243Z,128
2017-06-05T06:46:46.193Z,84
2017-06-05T06:47:56.469Z,36
2017-06-05T06:49:06.417Z,92
2017-06-05T06:50:15.423Z,128
2017-06-05T06:51:25.384Z,24
2017-06-05T06:52:35.341Z,128
2017-06-05T06:53:45.304Z,52
2017-06-05T06:54:54.637Z,56
2017-06-05T06:56:04.906Z,16
2017-06-05T06:57:14.861Z,12
2017-06-05T06:58:25.128Z,12
2017-06-05T06:59:34.772Z,16
2017-06-05T07:00:45.037Z,72
2017-06-05T07:01:54.677Z,56
2017-06-05T07:03:04.640Z,36
2017-06-05T07:04:14.910Z,152
2017-06-05T07:05:25.177Z,92
2017-06-05T07:06:34.502Z,140
2017-06-05T07:07:44.454Z,24
2017-06-05T07:08:54.407Z,12
2017-06-05T07:10:04.680Z,12
2017-06-05T07:11:14.940Z,12
2017-06-05T07:12:24.920Z,36
2017-06-05T07:13:34.878Z,24
2017-06-05T07:14:44.866Z,88
2017-06-05T07:15:55.136Z,72
2017-06-05T07:17:05.399Z,88
2017-06-05T07:18:15.670Z,84
2017-06-05T07:19:25.306Z,92
2017-06-05T07:20:35.265Z,84
2017-06-05T07:21:45.533Z,88
2017-06-05T07:22:55.488Z,84
2017-06-05T07:24:05.442Z,84
2017-06-05T07:25:15.429Z,80
2017-06-05T07:26:25.386Z,76
2017-06-05T07:27:35.022Z,84
2017-06-05T07:28:45.290Z,76
2017-06-05T07:29:55.559Z,68
2017-06-05T07:31:05.828Z,64
2017-06-05T07:32:15.472Z,68
2017-06-05T07:33:25.116Z,68
2017-06-05T07:34:35.394Z,64
2017-06-05T07:35:45.384Z,24
2017-06-05T07:36:54.710Z,40
2017-06-05T07:38:04.984Z,60
2017-06-05T07:39:14.932Z,60
2017-06-05T07:40:24.889Z,48
2017-06-05T07:41:34.529Z,16
2017-06-05T07:42:44.798Z,48
2017-06-05T07:43:54.431Z,44
2017-06-05T07:45:04.704Z,52
2017-06-05T07:46:14.972Z,48
2017-06-05T07:47:24.924Z,48
2017-06-05T07:48:35.190Z,24
2017-06-05T07:49:44.833Z,40
2017-06-05T07:50:55.101Z,44
2017-06-05T07:52:05.368Z,40
2017-06-05T07:53:15.003Z,52
2017-06-05T07:54:24.641Z,52
2017-06-05T07:55:34.912Z,52
2017-06-05T07:56:45.213Z,48
2017-06-05T07:57:55.164Z,44
2017-06-05T07:59:05.503Z,40
2017-06-05T08:00:15.772Z,44
2017-06-05T08:01:25.729Z,44
2017-06-05T08:02:35.996Z,48
2017-06-05T08:03:46.259Z,44
2017-06-05T08:04:55.909Z,48
2017-06-05T08:06:06.165Z,40
2017-06-05T08:07:15.804Z,48
2017-06-05T08:08:25.441Z,48
2017-06-05T08:09:35.394Z,48
2017-06-05T08:10:45.032Z,52
2017-06-05T08:11:54.984Z,48
2017-06-05T08:13:05.251Z,44
2017-06-05T08:14:15.525Z,40
2017-06-05T08:15:25.790Z,44
2017-06-05T08:16:36.062Z,48
2017-06-05T08:17:45.693Z,44
2017-06-05T08:18:55.946Z,44
2017-06-05T08:20:05.903Z,44
2017-06-05T08:21:15.543Z,40
2017-06-05T08:22:25.802Z,44
2017-06-05T08:23:35.443Z,44
2017-06-05T08:24:45.703Z,40
2017-06-05T08:25:55.975Z,44
2017-06-05T08:27:06.240Z,44
2017-06-05T08:28:15.578Z,44
2017-06-05T08:29:25.531Z,40
2017-06-05T08:30:35.489Z,40
2017-06-05T08:31:45.441Z,36
2017-06-05T08:32:55.080Z,36
2017-06-05T08:34:05.035Z,36
2017-06-05T08:35:15.309Z,36
2017-06-05T08:36:25.257Z,36
2017-06-05T08:37:35.212Z,32
2017-06-05T08:38:45.487Z,36
2017-06-05T08:39:55.118Z,28
2017-06-05T08:41:05.072Z,32
2017-06-05T08:42:14.709Z,32
2017-06-05T08:43:24.680Z,32
2017-06-05T08:44:34.955Z,32
2017-06-05T08:45:44.595Z,32
2017-06-05T08:46:54.867Z,32
2017-06-05T08:48:04.821Z,32
2017-06-05T08:49:15.087Z,32
2017-06-05T08:50:25.035Z,28
2017-06-05T08:51:35.302Z,28
2017-06-05T08:52:44.940Z,28
2017-06-05T08:53:54.881Z,32
2017-06-05T08:55:04.875Z,32
2017-06-05T08:56:14.833Z,28
2017-06-05T08:57:24.788Z,24
2017-06-05T08:58:34.113Z,40
2017-06-05T08:59:44.381Z,32
2017-06-05T09:00:54.332Z,32
2017-06-05T09:02:04.293Z,36
2017-06-05T09:03:14.564Z,36
2017-06-05T09:04:24.206Z,32
2017-06-05T09:05:34.169Z,32
2017-06-05T09:06:44.436Z,28
2017-06-05T09:07:54.391Z,32
2017-06-05T09:09:04.657Z,36
2017-06-05T09:10:14.927Z,32
2017-06-05T09:11:24.564Z,32
2017-06-05T09:12:34.518Z,36
2017-06-05T09:13:44.153Z,20
2017-06-05T09:14:54.102Z,32
2017-06-05T09:16:04.370Z,24
2017-06-05T09:17:14.353Z,24
2017-06-05T09:18:24.627Z,24
2017-06-05T09:19:34.578Z,32
2017-06-05T09:20:44.531Z,28
2017-06-05T09:21:54.168Z,32
2017-06-05T09:23:04.116Z,32
2017-06-05T09:24:14.379Z,28
2017-06-05T09:25:24.654Z,24
2017-06-05T09:26:34.925Z,24
2017-06-05T09:27:44.557Z,28
2017-06-05T09:28:54.838Z,28
2017-06-05T09:30:04.784Z,28
2017-06-05T09:31:15.050Z,28
2017-06-05T09:32:24.686Z,32
2017-06-05T09:33:34.954Z,28
2017-06-05T09:34:44.905Z,24
2017-06-05T09:35:54.864Z,28
2017-06-05T09:37:04.817Z,16
2017-06-05T09:38:14.445Z,12
2017-06-05T09:39:24.075Z,16
2017-06-05T09:40:34.024Z,20
2017-06-05T09:41:43.983Z,16
2017-06-05T09:42:53.936Z,20
2017-06-05T09:44:04.200Z,28
2017-06-05T09:45:13.834Z,20
2017-06-05T09:46:23.796Z,24
2017-06-05T09:47:33.751Z,20
2017-06-05T09:48:44.019Z,20
2017-06-05T09:49:53.656Z,12
2017-06-05T09:51:03.292Z,12
2017-06-05T09:52:13.558Z,20
2017-06-05T09:53:23.193Z,20
2017-06-05T09:54:33.455Z,16
2017-06-05T09:55:43.718Z,12
2017-06-05T09:56:53.987Z,16
2017-06-05T09:58:04.301Z,20
2017-06-05T09:59:14.810Z,20
2017-06-05T10:00:25.940Z,16
2017-06-05T10:01:37.014Z,16
2017-06-05T10:02:48.100Z,12
2017-06-05T10:03:59.190Z,12
2017-06-05T10:05:09.920Z,12
2017-06-05T10:06:20.692Z,12
2017-06-05T10:07:31.771Z,12
2017-06-05T10:08:42.474Z,12
2017-06-05T10:09:53.574Z,16
2017-06-05T10:11:04.650Z,16
2017-06-05T10:12:15.427Z,16
2017-06-05T10:13:26.211Z,16
2017-06-05T10:14:36.974Z,12
2017-06-05T10:15:47.790Z,16
2017-06-05T10:16:58.278Z,12
2017-06-05T10:18:09.148Z,16
2017-06-05T10:19:20.337Z,16
2017-06-05T10:20:31.165Z,8
2017-06-05T10:21:41.636Z,12
2017-06-05T10:22:52.455Z,8
2017-06-05T10:24:03.647Z,12
2017-06-05T10:25:14.225Z,12
2017-06-05T10:26:25.241Z,12
2017-06-05T10:27:36.327Z,16
2017-06-05T10:28:46.267Z,12
2017-06-05T10:29:56.559Z,12
2017-06-05T10:31:07.135Z,12
2017-06-05T10:32:17.705Z,16
2017-06-05T10:33:28.311Z,16
2017-06-05T10:34:39.024Z,12
2017-06-05T10:35:49.829Z,12
2017-06-05T10:37:00.946Z,12
2017-06-05T10:38:12.067Z,12
2017-06-05T10:39:23.249Z,16
2017-06-05T10:40:34.450Z,16
2017-06-05T10:41:45.378Z,12
2017-06-05T10:42:56.219Z,16
2017-06-05T10:44:08.032Z,12
2017-06-05T10:45:18.871Z,16
2017-06-05T10:46:29.637Z,16
2017-06-05T10:47:40.414Z,16
2017-06-05T10:48:51.146Z,16
2017-06-05T10:50:02.296Z,16
2017-06-05T10:51:12.347Z,16
2017-06-05T10:52:23.510Z,16
2017-06-05T10:53:33.964Z,12
2017-06-05T10:54:45.156Z,12
2017-06-05T10:55:56.360Z,12
2017-06-05T10:57:06.812Z,12
2017-06-05T10:58:18.040Z,16
2017-06-05T10:59:28.045Z,16
2017-06-05T11:00:38.629Z,16
2017-06-05T11:01:48.936Z,16
2017-06-05T11:02:59.169Z,12
2017-06-05T11:04:09.701Z,12
2017-06-05T11:05:20.240Z,16
2017-06-05T11:06:30.785Z,12
2017-06-05T11:07:41.026Z,16
2017-06-05T11:08:51.467Z,16
2017-06-05T11:10:01.759Z,16
2017-06-05T11:11:11.711Z,12
2017-06-05T11:12:21.975Z,16
2017-06-05T11:13:31.955Z,16
2017-06-05T11:14:41.903Z,12
2017-06-05T11:15:52.169Z,12
2017-06-05T11:17:01.807Z,12
2017-06-05T11:18:12.069Z,16
2017-06-05T11:19:22.025Z,16
2017-06-05T11:20:31.986Z,12
2017-06-05T11:21:41.945Z,12
2017-06-05T11:22:52.210Z,12
2017-06-05T11:24:02.161Z,20
2017-06-05T11:25:12.150Z,12
2017-06-05T11:26:21.471Z,12
2017-06-05T11:27:31.110Z,12
2017-06-05T11:28:41.376Z,12
2017-06-05T11:29:51.637Z,16
2017-06-05T11:31:01.594Z,16
2017-06-05T11:32:11.234Z,12
2017-06-05T11:33:21.495Z,12
2017-06-05T11:34:31.766Z,12
2017-06-05T11:35:42.038Z,16
2017-06-05T11:36:51.667Z,16
2017-06-05T11:38:01.305Z,16
2017-06-05T11:39:11.567Z,12
2017-06-05T11:40:21.519Z,16
2017-06-05T11:41:31.470Z,16
2017-06-05T11:42:41.737Z,16
2017-06-05T11:43:51.685Z,12
2017-06-05T11:45:01.326Z,12
2017-06-05T11:46:10.966Z,16
2017-06-05T11:47:20.916Z,16
2017-06-05T11:48:31.177Z,16
2017-06-05T11:49:40.809Z,16
2017-06-05T11:50:50.758Z,16
2017-06-05T11:52:01.028Z,12
2017-06-05T11:53:11.295Z,12
2017-06-05T11:54:20.929Z,12
2017-06-05T11:55:30.886Z,12
2017-06-05T11:56:40.877Z,16
2017-06-05T11:57:50.513Z,16
2017-06-05T11:59:00.151Z,16
2017-06-05T12:00:10.103Z,16
2017-06-05T12:01:19.758Z,16
2017-06-05T12:02:30.029Z,16
2017-06-05T12:03:40.009Z,16
2017-06-05T12:04:49.963Z,16
2017-06-05T12:06:00.231Z,16
2017-06-05T12:07:09.865Z,16
2017-06-05T12:08:20.132Z,16
2017-06-05T12:09:30.398Z,16
2017-06-05T12:10:40.663Z,16
2017-06-05T12:11:50.931Z,16
2017-06-05T12:13:00.884Z,20
2017-06-05T12:14:10.522Z,20
2017-06-05T12:15:20.469Z,16
2017-06-05T12:16:30.737Z,16
2017-06-05T12:17:40.373Z,16
2017-06-05T12:18:50.009Z,16
2017-06-05T12:20:00.276Z,20
2017-06-05T12:21:10.234Z,20
2017-06-05T12:22:20.186Z,20
2017-06-05T12:23:30.457Z,16
2017-06-05T12:24:40.715Z,16
2017-06-05T12:25:50.666Z,16
2017-06-05T12:27:00.931Z,20
2017-06-05T12:28:10.572Z,16
2017-06-05T12:29:20.837Z,20
2017-06-05T12:30:30.475Z,16
2017-06-05T12:31:40.743Z,12
2017-06-05T12:32:50.061Z,12
2017-06-05T12:34:00.323Z,12
2017-06-05T12:35:09.955Z,16
2017-06-05T12:36:20.222Z,12
2017-06-05T12:37:30.487Z,8
2017-06-05T12:38:40.752Z,12
2017-06-05T12:39:51.020Z,12
2017-06-05T12:41:01.288Z,12
2017-06-05T12:42:11.568Z,16
2017-06-05T12:43:21.521Z,12
2017-06-05T12:44:30.846Z,16
2017-06-05T12:45:41.110Z,16
2017-06-05T12:46:51.053Z,12
2017-06-05T12:48:01.004Z,16
2017-06-05T12:49:11.272Z,12
2017-06-05T12:50:21.223Z,16
2017-06-05T12:51:31.491Z,20
2017-06-05T12:52:41.755Z,20
2017-06-05T12:53:52.024Z,12
2017-06-05T12:55:02.294Z,12
2017-06-05T12:56:12.245Z,8
2017-06-05T12:57:22.507Z,12
2017-06-05T12:58:32.772Z,12
2017-06-05T12:59:43.056Z,12
2017-06-05T13:00:53.003Z,12
2017-06-05T13:02:03.271Z,8
2017-06-05T13:03:13.227Z,12
2017-06-05T13:04:22.889Z,12
2017-06-05T13:05:32.842Z,8
2017-06-05T13:06:43.110Z,8
2017-06-05T13:07:53.061Z,8
2017-06-05T13:09:03.323Z,8
2017-06-05T13:10:13.274Z,8
2017-06-05T13:11:22.908Z,8
2017-06-05T13:12:32.861Z,8
2017-06-05T13:13:43.131Z,8
2017-06-05T13:14:52.765Z,12
2017-06-05T13:16:03.053Z,12
2017-06-05T13:17:13.320Z,12
2017-06-05T13:18:23.271Z,8
2017-06-05T13:19:33.537Z,8
2017-06-05T13:20:43.486Z,8
2017-06-05T13:21:53.745Z,12
2017-06-05T13:23:04.013Z,12
2017-06-05T13:24:13.964Z,12
2017-06-05T13:25:23.913Z,12
2017-06-05T13:26:33.547Z,12
2017-06-05T13:27:42.862Z,8
2017-06-05T13:28:52.815Z,12
2017-06-05T13:30:03.118Z,12
2017-06-05T13:31:12.769Z,24
2017-06-05T13:32:22.720Z,12
2017-06-05T13:33:32.709Z,12
2017-06-05T13:34:42.345Z,12
2017-06-05T13:35:52.291Z,8
2017-06-05T13:37:02.243Z,8
2017-06-05T13:38:12.507Z,12
2017-06-05T13:39:22.488Z,8
2017-06-05T13:40:32.125Z,12
2017-06-05T13:41:42.081Z,12
2017-06-05T13:42:52.030Z,12
2017-06-05T13:44:02.298Z,12
2017-06-05T13:45:12.280Z,12
2017-06-05T13:46:22.540Z,12
2017-06-05T13:47:32.498Z,16
2017-06-05T13:48:42.805Z,12
2017-06-05T13:49:53.073Z,12
2017-06-05T13:51:03.024Z,12
2017-06-05T13:52:12.976Z,12
2017-06-05T13:53:23.242Z,12
2017-06-05T13:54:33.195Z,20
2017-06-05T13:55:43.455Z,16
2017-06-05T13:56:53.402Z,20
2017-06-05T13:58:02.722Z,24
2017-06-05T13:59:12.985Z,24
2017-06-05T14:00:22.964Z,24
2017-06-05T14:01:32.923Z,24
2017-06-05T14:02:43.192Z,20
2017-06-05T14:03:52.831Z,24
2017-06-05T14:05:03.108Z,24
2017-06-05T14:06:12.745Z,20
2017-06-05T14:07:22.688Z,20
2017-06-05T14:08:32.641Z,20
2017-06-05T14:09:42.021Z,24
2017-06-05T14:10:52.292Z,24
2017-06-05T14:12:02.250Z,20
2017-06-05T14:13:12.530Z,12
2017-06-05T14:14:22.484Z,12
2017-06-05T14:15:32.759Z,12
2017-06-05T14:16:42.409Z,8
2017-06-05T14:17:52.682Z,8
2017-06-05T14:19:01.681Z,8
2017-06-05T14:20:11.966Z,8
2017-06-05T14:21:21.924Z,12
2017-06-05T14:22:31.874Z,12
2017-06-05T14:23:42.139Z,8
2017-06-05T14:24:51.774Z,12
2017-06-05T14:26:01.758Z,24
2017-06-05T14:27:12.026Z,28
2017-06-05T14:28:22.297Z,24
2017-06-05T14:29:31.933Z,16
2017-06-05T14:30:41.894Z,20
2017-06-05T14:31:51.219Z,28
2017-06-05T14:33:01.172Z,28
2017-06-05T14:34:11.181Z,28
2017-06-05T14:35:21.448Z,24
2017-06-05T14:36:31.407Z,24
2017-06-05T14:37:41.675Z,16
2017-06-05T14:38:51.937Z,16
2017-06-05T14:40:01.888Z,20
2017-06-05T14:41:11.531Z,16
2017-06-05T14:42:21.487Z,12
2017-06-05T14:43:30.807Z,20
2017-06-05T14:44:40.757Z,20
2017-06-05T14:45:51.028Z,16
2017-06-05T14:47:00.976Z,16
2017-06-05T14:48:10.609Z,12
2017-06-05T14:49:20.601Z,8
2017-06-05T14:50:30.872Z,12
2017-06-05T14:51:40.512Z,8
2017-06-05T14:52:50.777Z,12
2017-06-05T14:54:00.723Z,12
2017-06-05T14:55:10.363Z,12
2017-06-05T14:56:20.631Z,12
2017-06-05T14:57:30.924Z,8
2017-06-05T14:58:40.874Z,16
2017-06-05T14:59:51.135Z,12
2017-06-05T15:01:01.397Z,20
2017-06-05T15:02:10.720Z,20
2017-06-05T15:03:20.679Z,24
2017-06-05T15:04:30.647Z,8
2017-06-05T15:05:40.941Z,12
2017-06-05T15:06:50.262Z,12
2017-06-05T15:08:00.525Z,8
2017-06-05T15:09:10.160Z,12
2017-06-05T15:10:19.792Z,8
2017-06-05T15:11:29.121Z,8
2017-06-05T15:12:38.759Z,8
2017-06-05T15:13:48.397Z,8
2017-06-05T15:14:58.668Z,8
2017-06-05T15:16:08.619Z,8
2017-06-05T15:17:18.259Z,8
2017-06-05T15:18:28.227Z,8
2017-06-05T15:19:38.177Z,8
2017-06-05T15:20:47.811Z,8
2017-06-05T15:21:57.135Z,4
2017-06-05T15:23:07.086Z,8
2017-06-05T15:24:17.356Z,8
2017-06-05T15:25:27.310Z,4
2017-06-05T15:26:36.945Z,8
2017-06-05T15:27:47.207Z,4
2017-06-05T15:28:56.848Z,8
2017-06-05T15:30:07.130Z,4
2017-06-05T15:31:17.086Z,4
2017-06-05T15:32:27.035Z,4
2017-06-05T15:33:36.993Z,4
2017-06-05T15:34:47.253Z,4
2017-06-05T15:35:57.201Z,4
2017-06-05T15:37:07.152Z,4
2017-06-05T15:38:17.415Z,4
2017-06-05T15:39:27.364Z,4
2017-06-05T15:40:37.314Z,4
2017-06-05T15:41:46.669Z,4
2017-06-05T15:42:56.624Z,4
2017-06-05T15:44:06.572Z,4
2017-06-05T15:45:15.901Z,4
2017-06-05T15:46:25.855Z,4
2017-06-05T15:47:36.124Z,4
2017-06-05T15:48:46.389Z,0
2017-06-05T15:49:56.032Z,4
2017-06-05T15:51:05.982Z,4
2017-06-05T15:52:15.625Z,4
2017-06-05T15:53:25.578Z,0
2017-06-05T15:54:35.537Z,0
2017-06-05T15:55:45.805Z,4
2017-06-05T15:56:55.760Z,4
2017-06-05T15:58:05.712Z,4
2017-06-05T15:59:15.979Z,0
2017-06-05T16:00:26.243Z,0
2017-06-05T16:01:36.514Z,4
2017-06-05T16:02:46.784Z,4
2017-06-05T16:03:56.734Z,4
2017-06-05T16:05:06.368Z,4
2017-06-05T16:06:16.320Z,4
2017-06-05T16:07:26.305Z,4
2017-06-05T16:08:36.257Z,4
2017-06-05T16:09:45.571Z,4
2017-06-05T16:10:55.842Z,4
2017-06-05T16:12:06.217Z,4
2017-06-05T16:13:15.856Z,4
2017-06-05T16:14:25.805Z,4
2017-06-05T16:15:35.757Z,4
2017-06-05T16:16:46.021Z,0
2017-06-05T16:17:56.283Z,4
2017-06-05T16:19:06.550Z,0
2017-06-05T16:20:16.189Z,0
2017-06-05T16:21:26.456Z,0
2017-06-05T16:22:36.400Z,4
2017-06-05T16:23:46.694Z,4
2017-06-05T16:24:56.663Z,4
2017-06-05T16:26:06.304Z,4
2017-06-05T16:27:16.258Z,0
2017-06-05T16:28:26.209Z,4
2017-06-05T16:29:36.159Z,0
2017-06-05T16:30:46.108Z,4
2017-06-05T16:31:56.378Z,0
2017-06-05T16:33:06.637Z,0
2017-06-05T16:34:16.585Z,4
2017-06-05T16:35:26.850Z,4
2017-06-05T16:36:36.798Z,4
2017-06-05T16:37:46.745Z,4
2017-06-05T16:38:56.693Z,4
2017-06-05T16:40:06.643Z,4
2017-06-05T16:41:15.966Z,4
2017-06-05T16:42:26.237Z,4
2017-06-05T16:43:35.880Z,0
2017-06-05T16:44:45.524Z,0
2017-06-05T16:45:55.790Z,0
2017-06-05T16:47:06.088Z,0
2017-06-05T16:48:15.727Z,0
2017-06-05T16:49:26.021Z,0
2017-06-05T16:50:36.310Z,0
2017-06-05T16:51:45.951Z,0
2017-06-05T16:52:55.631Z,0
2017-06-05T16:54:05.900Z,0